createdAt,value
2023-04-30T00:02:03.494Z,3.20
2023-04-30T00:04:31.802Z,2.00
2023-04-30T00:07:00.054Z,2.85
2023-04-30T00:09:28.294Z,2.60
2023-04-30T00:11:56.528Z,2.88
2023-04-30T00:14:24.923Z,3.03
2023-04-30T00:16:53.123Z,3.40
2023-04-30T00:19:21.450Z,2.20
2023-04-30T00:21:50.036Z,2.63
2023-04-30T00:24:18.302Z,3.00
2023-04-30T00:26:46.581Z,3.08
2023-04-30T00:29:14.841Z,2.53
2023-04-30T00:31:43.143Z,2.67
2023-04-30T00:34:11.362Z,3.15
2023-04-30T00:36:40.577Z,2.45
2023-04-30T00:39:08.923Z,2.33
2023-04-30T00:41:37.333Z,2.55
2023-04-30T00:44:06.547Z,2.38
2023-04-30T00:46:34.794Z,3.03
2023-04-30T00:49:04.980Z,3.10
2023-04-30T00:51:33.781Z,2.45
2023-04-30T00:54:05.622Z,3.15
2023-04-30T00:56:34.095Z,2.35
2023-04-30T00:59:02.451Z,2.78
2023-04-30T01:01:31.673Z,2.72
2023-04-30T01:04:00.950Z,2.50
2023-04-30T01:06:29.576Z,2.55
2023-04-30T01:08:58.399Z,2.25
2023-04-30T01:12:01.919Z,3.03
2023-04-30T01:15:09.125Z,2.55
2023-04-30T01:17:57.477Z,2.75
2023-04-30T01:20:28.679Z,3.25
2023-04-30T01:24:09.546Z,2.42
2023-04-30T01:27:01.456Z,2.97
2023-04-30T01:29:33.110Z,2.90
2023-04-30T01:32:02.701Z,3.40
2023-04-30T01:34:31.102Z,2.97
2023-04-30T01:37:35.959Z,2.33
2023-04-30T01:40:09.848Z,2.47
2023-04-30T01:43:02.356Z,2.67
2023-04-30T01:46:29.419Z,2.70
2023-04-30T01:49:21.030Z,2.85
2023-04-30T01:52:02.906Z,2.85
2023-04-30T01:54:56.406Z,2.70
2023-04-30T01:57:40.299Z,2.83
2023-04-30T02:00:13.437Z,2.83
2023-04-30T02:02:41.735Z,2.80
2023-04-30T02:05:10.225Z,3.05
2023-04-30T02:07:42.204Z,3.22
2023-04-30T02:10:12.202Z,2.95
2023-04-30T02:12:40.896Z,2.70
2023-04-30T02:15:09.907Z,2.72
2023-04-30T02:17:38.377Z,2.47
2023-04-30T02:20:08.915Z,3.15
2023-04-30T02:22:37.535Z,2.67
2023-04-30T02:25:06.069Z,3.35
2023-04-30T02:27:34.797Z,3.33
2023-04-30T02:30:04.285Z,3.00
2023-04-30T02:32:32.572Z,3.33
2023-04-30T02:35:00.998Z,2.53
2023-04-30T02:37:29.249Z,2.80
2023-04-30T02:39:57.940Z,2.88
2023-04-30T02:42:27.176Z,3.53
2023-04-30T02:44:55.404Z,2.97
2023-04-30T02:47:23.761Z,2.60
2023-04-30T02:49:52.074Z,3.00
2023-04-30T02:52:20.429Z,3.40
2023-04-30T02:54:48.976Z,3.25
2023-04-30T02:57:17.296Z,3.38
2023-04-30T02:59:46.374Z,3.60
2023-04-30T03:02:14.857Z,3.42
2023-04-30T03:04:43.098Z,2.97
2023-04-30T03:07:11.482Z,3.03
2023-04-30T03:09:39.732Z,2.85
2023-04-30T03:12:08.152Z,3.67
2023-04-30T03:14:36.541Z,3.05
2023-04-30T03:17:04.915Z,3.10
2023-04-30T03:19:33.056Z,2.60
2023-04-30T03:22:01.377Z,2.20
2023-04-30T03:24:30.131Z,2.72
2023-04-30T03:26:58.591Z,2.92
2023-04-30T03:29:26.795Z,2.97
2023-04-30T03:31:55.064Z,2.65
2023-04-30T03:34:23.435Z,2.22
2023-04-30T03:36:51.967Z,2.85
2023-04-30T03:39:20.284Z,3.00
2023-04-30T03:41:48.549Z,2.72
2023-04-30T03:44:16.852Z,2.67
2023-04-30T03:46:45.515Z,3.30
2023-04-30T03:49:14.214Z,2.83
2023-04-30T03:51:42.559Z,3.10
2023-04-30T03:54:10.865Z,3.08
2023-04-30T03:56:39.572Z,3.00
2023-04-30T03:59:07.975Z,2.80
2023-04-30T04:01:36.567Z,2.80
2023-04-30T04:04:05.339Z,3.00
2023-04-30T04:06:34.898Z,2.47
2023-04-30T04:09:04.481Z,2.97
2023-04-30T04:11:33.157Z,2.45
2023-04-30T04:14:01.528Z,2.65
2023-04-30T04:16:30.182Z,2.70
2023-04-30T04:18:58.527Z,2.90
2023-04-30T04:21:27.288Z,2.97
2023-04-30T04:23:55.787Z,2.88
2023-04-30T04:26:25.955Z,2.97
2023-04-30T04:28:54.556Z,2.65
2023-04-30T04:31:23.138Z,3.10
2023-04-30T04:33:58.316Z,3.47
2023-04-30T04:36:28.623Z,2.15
2023-04-30T04:39:01.857Z,2.67
2023-04-30T04:41:35.446Z,3.28
2023-04-30T04:44:05.188Z,2.83
2023-04-30T04:46:38.587Z,2.58
2023-04-30T04:49:10.202Z,2.92
2023-04-30T04:54:07.851Z,3.00
2023-04-30T04:56:36.382Z,2.75
2023-04-30T04:59:04.731Z,3.72
2023-04-30T05:01:33.066Z,3.30
2023-04-30T05:04:01.685Z,2.65
2023-04-30T05:06:30.086Z,3.03
2023-04-30T05:08:58.355Z,3.75
2023-04-30T05:11:26.619Z,3.20
2023-04-30T05:13:54.839Z,3.70
2023-04-30T05:16:23.069Z,3.00
2023-04-30T05:18:52.220Z,3.72
2023-04-30T05:21:20.456Z,3.65
2023-04-30T05:23:48.689Z,3.92
2023-04-30T05:26:16.883Z,3.90
2023-04-30T05:28:45.467Z,4.15
2023-04-30T05:31:13.727Z,3.17
2023-04-30T05:33:42.092Z,3.90
2023-04-30T05:36:11.170Z,3.77
2023-04-30T05:38:39.632Z,3.97
2023-04-30T05:41:10.377Z,3.63
2023-04-30T05:43:38.607Z,3.75
2023-04-30T05:46:07.008Z,4.25
2023-04-30T05:48:35.288Z,4.22
2023-04-30T05:51:03.600Z,3.00
2023-04-30T05:53:32.032Z,3.45
2023-04-30T05:56:00.300Z,3.83
2023-04-30T05:58:28.694Z,3.17
2023-04-30T06:00:57.109Z,4.40
2023-04-30T06:03:25.751Z,3.58
2023-04-30T06:05:54.989Z,3.78
2023-04-30T06:08:23.387Z,4.22
2023-04-30T06:10:52.103Z,4.63
2023-04-30T06:13:20.430Z,3.65
2023-04-30T06:15:48.852Z,4.10
2023-04-30T06:18:17.268Z,4.00
2023-04-30T06:20:45.564Z,3.65
2023-04-30T06:23:13.766Z,4.05
2023-04-30T06:25:42.014Z,4.13
2023-04-30T06:28:10.285Z,4.03
2023-04-30T06:30:38.675Z,3.88
2023-04-30T06:33:06.915Z,2.95
2023-04-30T06:35:35.491Z,3.65
2023-04-30T06:38:04.151Z,3.70
2023-04-30T06:40:32.629Z,3.60
2023-04-30T06:43:00.833Z,3.85
2023-04-30T06:45:29.158Z,3.63
2023-04-30T06:47:59.355Z,3.60
2023-04-30T06:50:27.979Z,3.35
2023-04-30T06:52:56.346Z,3.30
2023-04-30T06:55:25.047Z,2.80
2023-04-30T06:57:56.127Z,3.17
2023-04-30T07:00:24.672Z,3.58
2023-04-30T07:02:53.169Z,3.63
2023-04-30T07:05:23.184Z,3.05
2023-04-30T07:07:51.506Z,3.67
2023-04-30T07:10:19.964Z,3.10
2023-04-30T07:12:47.972Z,3.15
2023-04-30T07:15:18.948Z,2.90
2023-04-30T07:17:47.386Z,2.70
2023-04-30T07:20:16.116Z,3.17
2023-04-30T07:22:46.157Z,3.10
2023-04-30T07:25:15.072Z,3.08
2023-04-30T07:27:44.839Z,3.03
2023-04-30T07:30:13.973Z,3.03
2023-04-30T07:32:42.569Z,2.97
2023-04-30T07:35:11.181Z,3.67
2023-04-30T07:37:41.202Z,3.38
2023-04-30T07:40:15.439Z,3.27
2023-04-30T07:42:47.737Z,3.00
2023-04-30T07:45:15.979Z,2.60
2023-04-30T07:47:44.405Z,2.78
2023-04-30T07:50:12.679Z,2.83
2023-04-30T07:52:41.668Z,3.05
2023-04-30T07:55:10.610Z,2.58
2023-04-30T07:58:20.279Z,2.88
2023-04-30T08:00:48.721Z,3.10
2023-04-30T08:03:17.008Z,3.10
2023-04-30T08:05:47.597Z,3.03
2023-04-30T08:08:18.401Z,2.90
2023-04-30T08:10:46.482Z,3.03
2023-04-30T08:13:14.404Z,3.05
2023-04-30T08:15:42.419Z,2.80
2023-04-30T08:18:10.605Z,2.85
2023-04-30T08:20:39.072Z,2.80
2023-04-30T08:23:06.968Z,2.92
2023-04-30T08:25:34.877Z,3.13
2023-04-30T08:28:02.820Z,3.60
2023-04-30T08:30:30.699Z,2.83
2023-04-30T08:32:59.175Z,2.92
2023-04-30T08:35:26.993Z,2.70
2023-04-30T08:37:55.349Z,3.88
2023-04-30T08:40:33.831Z,4.05
2023-04-30T08:43:11.788Z,3.03
2023-04-30T08:45:41.418Z,3.60
2023-04-30T08:48:15.169Z,3.65
2023-04-30T08:50:43.324Z,3.65
2023-04-30T08:53:13.161Z,3.50
2023-04-30T08:55:41.990Z,3.35
2023-04-30T08:58:12.771Z,3.58
2023-04-30T09:00:41.342Z,3.17
2023-04-30T09:03:10.056Z,3.03
2023-04-30T09:05:38.495Z,3.42
2023-04-30T09:08:09.021Z,2.83
2023-04-30T09:10:38.350Z,2.95
2023-04-30T09:13:09.178Z,2.95
2023-04-30T09:15:41.581Z,3.10
2023-04-30T09:18:18.336Z,3.13
2023-04-30T09:21:05.491Z,2.80
2023-04-30T09:23:33.508Z,3.35
2023-04-30T09:26:01.879Z,2.97
2023-04-30T09:28:29.999Z,4.28
2023-04-30T09:30:58.315Z,2.33
2023-04-30T09:33:26.156Z,2.60
2023-04-30T09:35:53.878Z,2.20
2023-04-30T09:38:33.663Z,2.28
2023-04-30T09:41:04.244Z,2.95
2023-04-30T09:43:31.908Z,2.88
2023-04-30T09:46:00.589Z,2.80
2023-04-30T09:48:28.445Z,3.35
2023-04-30T09:50:56.650Z,2.58
2023-04-30T09:53:24.320Z,2.72
2023-04-30T09:55:52.609Z,2.42
2023-04-30T09:58:20.596Z,2.33
2023-04-30T10:00:53.188Z,2.55
2023-04-30T10:03:24.257Z,2.30
2023-04-30T10:05:53.070Z,2.50
2023-04-30T10:08:43.308Z,2.30
2023-04-30T10:11:17.365Z,2.08
2023-04-30T10:13:55.661Z,2.40
2023-04-30T10:16:42.355Z,2.47
2023-04-30T10:19:20.720Z,2.10
2023-04-30T10:21:49.179Z,2.08
2023-04-30T10:24:20.958Z,1.80
2023-04-30T10:26:50.241Z,2.10
2023-04-30T10:29:18.787Z,1.90
2023-04-30T10:31:52.692Z,2.20
2023-04-30T10:34:43.752Z,2.13
2023-04-30T10:37:51.291Z,2.13
2023-04-30T10:40:19.365Z,1.90
2023-04-30T10:42:49.544Z,1.85
2023-04-30T10:45:17.390Z,1.85
2023-04-30T10:47:48.086Z,1.30
2023-04-30T10:50:16.480Z,1.73
2023-04-30T10:52:44.454Z,1.48
2023-04-30T10:55:16.250Z,1.65
2023-04-30T10:57:46.532Z,1.55
2023-04-30T11:00:20.627Z,1.48
2023-04-30T11:02:50.079Z,1.40
2023-04-30T11:05:19.626Z,1.52
2023-04-30T11:07:51.227Z,1.27
2023-04-30T11:10:25.226Z,1.70
2023-04-30T11:12:55.795Z,1.80
2023-04-30T11:15:39.713Z,1.55
2023-04-30T11:18:08.893Z,1.65
2023-04-30T11:20:57.452Z,1.95
2023-04-30T11:23:38.504Z,1.60
2023-04-30T11:26:07.938Z,1.50
2023-04-30T11:28:38.161Z,1.50
2023-04-30T11:31:06.603Z,1.85
2023-04-30T11:33:35.803Z,1.95
2023-04-30T11:36:03.851Z,1.88
2023-04-30T11:38:35.798Z,1.55
2023-04-30T11:41:04.984Z,2.08
2023-04-30T11:43:34.613Z,1.33
2023-04-30T11:46:09.762Z,1.60
2023-04-30T11:48:40.162Z,1.80
2023-04-30T11:53:51.288Z,1.88
2023-04-30T11:56:24.398Z,1.55
2023-04-30T11:58:54.866Z,1.60
2023-04-30T12:03:57.591Z,1.40
2023-04-30T12:06:28.711Z,1.05
2023-04-30T12:08:59.257Z,1.48
2023-04-30T12:11:33.481Z,1.20
2023-04-30T12:14:07.489Z,1.38
2023-04-30T12:16:51.620Z,1.33
2023-04-30T12:19:22.325Z,1.77
2023-04-30T12:21:50.476Z,1.48
2023-04-30T12:24:19.813Z,1.50
2023-04-30T12:26:48.011Z,1.15
2023-04-30T12:29:18.516Z,1.10
2023-04-30T12:31:49.228Z,1.80
2023-04-30T12:34:18.363Z,1.48
2023-04-30T12:36:46.430Z,1.97
2023-04-30T12:39:16.252Z,1.80
2023-04-30T12:41:47.175Z,2.13
2023-04-30T12:44:19.843Z,1.35
2023-04-30T12:46:49.246Z,1.60
2023-04-30T12:49:36.315Z,1.52
2023-04-30T12:52:11.332Z,1.60
2023-04-30T12:54:39.915Z,1.60
2023-04-30T12:57:12.958Z,1.60
2023-04-30T12:59:59.323Z,1.85
2023-04-30T13:02:29.256Z,1.70
2023-04-30T13:04:57.128Z,2.10
2023-04-30T13:07:25.264Z,2.38
2023-04-30T13:09:53.215Z,1.65
2023-04-30T13:12:21.408Z,2.50
2023-04-30T13:14:49.383Z,2.20
2023-04-30T13:17:17.586Z,1.98
2023-04-30T13:19:45.484Z,1.95
2023-04-30T13:22:13.386Z,1.90
2023-04-30T13:24:41.202Z,1.55
2023-04-30T13:27:09.054Z,1.50
2023-04-30T13:29:36.604Z,1.42
2023-04-30T13:32:04.403Z,1.52
2023-04-30T13:34:32.794Z,1.63
2023-04-30T13:37:00.346Z,1.60
2023-04-30T13:39:28.037Z,1.63
2023-04-30T13:41:55.743Z,1.50
2023-04-30T13:44:23.292Z,1.35
2023-04-30T13:46:51.271Z,1.30
2023-04-30T13:49:19.162Z,1.52
2023-04-30T13:51:46.987Z,1.70
2023-04-30T13:54:14.821Z,1.52
2023-04-30T13:56:43.081Z,1.45
2023-04-30T13:59:11.170Z,1.50
2023-04-30T14:01:40.440Z,1.20
2023-04-30T14:04:08.363Z,1.73
2023-04-30T14:06:36.157Z,1.80
2023-04-30T14:09:04.214Z,1.50
2023-04-30T14:11:32.257Z,1.40
2023-04-30T14:14:00.076Z,1.63
2023-04-30T14:16:28.755Z,1.42
2023-04-30T14:18:56.297Z,1.05
2023-04-30T14:21:23.840Z,1.30
2023-04-30T14:23:52.193Z,1.00
2023-04-30T14:26:20.396Z,1.20
2023-04-30T14:28:48.650Z,1.20
2023-04-30T14:31:20.114Z,1.13
2023-04-30T14:33:48.219Z,1.25
2023-04-30T14:36:16.503Z,1.20
2023-04-30T14:38:44.721Z,1.48
2023-04-30T14:41:12.848Z,1.30
2023-04-30T14:43:41.184Z,1.25
2023-04-30T14:46:08.804Z,1.25
2023-04-30T14:48:36.369Z,1.20
2023-04-30T14:51:04.609Z,1.13
2023-04-30T14:53:32.923Z,1.13
2023-04-30T14:56:00.447Z,1.10
2023-04-30T14:58:28.080Z,1.20
2023-04-30T15:00:56.214Z,1.10
2023-04-30T15:03:24.265Z,1.27
2023-04-30T15:05:52.292Z,1.33
2023-04-30T15:08:20.457Z,1.10
2023-04-30T15:10:48.428Z,1.30
2023-04-30T15:13:16.424Z,1.17
2023-04-30T15:15:46.863Z,0.93
2023-04-30T15:18:15.548Z,1.00
2023-04-30T15:20:43.180Z,1.38
2023-04-30T15:23:12.871Z,1.27
2023-04-30T15:25:40.910Z,1.20
2023-04-30T15:28:09.879Z,1.33
2023-04-30T15:30:37.554Z,0.87
2023-04-30T15:33:05.370Z,0.80
2023-04-30T15:35:35.069Z,0.90
2023-04-30T15:38:03.025Z,1.20
2023-04-30T15:40:30.654Z,1.13
2023-04-30T15:42:58.644Z,1.10
2023-04-30T15:45:27.851Z,0.90
2023-04-30T15:47:56.152Z,1.00
2023-04-30T15:50:24.072Z,1.10
2023-04-30T15:52:51.914Z,1.05
2023-04-30T15:55:19.375Z,0.85
2023-04-30T15:57:47.049Z,1.23
2023-04-30T16:00:16.695Z,0.85
2023-04-30T16:02:44.910Z,1.20
2023-04-30T16:05:13.020Z,0.73
2023-04-30T16:07:43.645Z,1.10
2023-04-30T16:10:12.403Z,1.00
2023-04-30T16:12:40.465Z,0.90
2023-04-30T16:15:09.480Z,0.85
2023-04-30T16:17:37.234Z,0.82
2023-04-30T16:20:06.241Z,0.93
2023-04-30T16:22:34.482Z,0.82
2023-04-30T16:25:02.434Z,1.20
2023-04-30T16:27:30.798Z,0.85
2023-04-30T16:29:58.504Z,1.10
2023-04-30T16:32:27.146Z,1.05
2023-04-30T16:34:54.642Z,1.00
2023-04-30T16:37:22.687Z,1.10
2023-04-30T16:39:51.341Z,1.23
2023-04-30T16:42:19.329Z,0.77
2023-04-30T16:44:47.345Z,1.40
2023-04-30T16:47:17.297Z,0.90
2023-04-30T16:49:45.372Z,0.90
2023-04-30T16:52:12.978Z,1.20
2023-04-30T16:54:40.956Z,0.90
2023-04-30T16:57:09.436Z,1.02
2023-04-30T16:59:37.516Z,0.85
2023-04-30T17:02:05.443Z,1.08
2023-04-30T17:04:33.474Z,1.13
2023-04-30T17:07:00.988Z,0.90
2023-04-30T17:09:30.092Z,0.98
2023-04-30T17:11:57.971Z,0.90
2023-04-30T17:14:26.740Z,0.95
2023-04-30T17:16:54.771Z,1.10
2023-04-30T17:19:22.721Z,1.08
2023-04-30T17:21:50.875Z,0.82
2023-04-30T17:24:18.599Z,0.98
2023-04-30T17:26:47.666Z,1.23
2023-04-30T17:29:16.541Z,1.13
2023-04-30T17:31:44.777Z,1.10
2023-04-30T17:34:13.619Z,0.93
2023-04-30T17:36:41.825Z,1.23
2023-04-30T17:39:09.547Z,0.70
2023-04-30T17:41:37.615Z,1.10
2023-04-30T17:44:05.176Z,0.85
2023-04-30T17:46:33.206Z,1.20
2023-04-30T17:49:01.709Z,1.02
2023-04-30T17:51:31.717Z,1.08
2023-04-30T17:53:59.991Z,1.00
2023-04-30T17:56:29.910Z,1.42
2023-04-30T17:58:58.088Z,1.10
2023-04-30T18:01:27.746Z,1.17
2023-04-30T18:03:59.341Z,1.20
2023-04-30T18:06:27.955Z,1.30
2023-04-30T18:08:55.705Z,1.20
2023-04-30T18:11:23.214Z,1.33
2023-04-30T18:13:50.783Z,0.80
2023-04-30T18:16:18.420Z,1.30
2023-04-30T18:18:46.471Z,1.40
2023-04-30T18:21:14.592Z,0.90
2023-04-30T18:23:42.197Z,1.48
2023-04-30T18:26:10.723Z,1.20
2023-04-30T18:28:38.250Z,1.15
2023-04-30T18:31:06.551Z,1.02
2023-04-30T18:33:34.099Z,1.20
2023-04-30T18:36:05.393Z,1.10
2023-04-30T18:38:34.719Z,1.33
2023-04-30T18:41:02.338Z,1.15
2023-04-30T18:43:30.355Z,1.00
2023-04-30T18:45:58.450Z,1.60
2023-04-30T18:48:26.116Z,1.27
2023-04-30T18:50:54.085Z,1.92
2023-04-30T18:53:22.087Z,1.02
2023-04-30T18:55:49.544Z,2.10
2023-04-30T18:58:17.122Z,2.30
2023-04-30T19:00:44.725Z,1.40
2023-04-30T19:03:13.537Z,1.33
2023-04-30T19:05:42.533Z,1.67
2023-04-30T19:08:10.160Z,1.80
2023-04-30T19:10:37.756Z,1.70
2023-04-30T19:13:06.892Z,1.30
2023-04-30T19:15:35.360Z,1.75
2023-04-30T19:18:03.024Z,1.02
2023-04-30T19:20:30.612Z,1.50
2023-04-30T19:22:58.741Z,1.92
2023-04-30T19:25:26.650Z,1.70
2023-04-30T19:27:54.190Z,1.67
2023-04-30T19:30:22.692Z,1.70
2023-04-30T19:32:50.235Z,1.60
2023-04-30T19:35:17.882Z,1.70
2023-04-30T19:37:45.476Z,2.00
2023-04-30T19:40:14.588Z,1.90
2023-04-30T19:42:42.769Z,1.73
2023-04-30T19:45:11.131Z,2.03
2023-04-30T19:47:38.753Z,1.90
2023-04-30T19:50:07.761Z,2.20
2023-04-30T19:52:35.754Z,1.80
2023-04-30T19:55:03.879Z,1.90
2023-04-30T19:57:34.860Z,2.40
2023-04-30T20:00:04.416Z,2.22
2023-04-30T20:02:34.834Z,2.00
2023-04-30T20:05:04.013Z,1.50
2023-04-30T20:07:33.187Z,1.55
2023-04-30T20:10:01.323Z,1.92
2023-04-30T20:12:29.324Z,2.05
2023-04-30T20:14:57.201Z,1.15
2023-04-30T20:17:25.247Z,2.17
2023-04-30T20:19:54.110Z,1.92
2023-04-30T20:22:22.369Z,2.20
2023-04-30T20:24:50.307Z,1.95
2023-04-30T20:27:17.916Z,2.20
2023-04-30T20:29:46.185Z,1.63
2023-04-30T20:32:14.082Z,2.33
2023-04-30T20:34:41.921Z,1.67
2023-04-30T20:37:10.039Z,1.90
2023-04-30T20:39:40.995Z,2.20
2023-04-30T20:42:08.620Z,1.90
2023-04-30T20:44:36.789Z,1.90
2023-04-30T20:47:05.293Z,1.90
2023-04-30T20:49:33.303Z,2.50
2023-04-30T20:52:01.171Z,1.95
2023-04-30T20:54:29.991Z,2.15
2023-04-30T20:57:00.910Z,2.10
2023-04-30T20:59:28.605Z,1.75
2023-04-30T21:01:56.912Z,2.30
2023-04-30T21:04:24.861Z,2.00
2023-04-30T21:06:52.851Z,2.20
2023-04-30T21:09:22.142Z,1.88
2023-04-30T21:11:50.074Z,2.15
2023-04-30T21:14:17.966Z,2.40
2023-04-30T21:16:46.262Z,1.80
2023-04-30T21:19:14.876Z,2.00
2023-04-30T21:21:42.926Z,2.22
2023-04-30T21:24:11.227Z,1.90
2023-04-30T21:26:42.089Z,1.92
2023-04-30T21:29:13.054Z,1.75
2023-04-30T21:31:41.017Z,2.00
2023-04-30T21:34:08.886Z,2.08
2023-04-30T21:36:37.456Z,1.50
2023-04-30T21:39:05.593Z,2.13
2023-04-30T21:41:33.602Z,2.05
2023-04-30T21:44:01.494Z,1.92
2023-04-30T21:46:29.997Z,1.88
2023-04-30T21:48:58.073Z,1.98
2023-04-30T21:51:25.979Z,2.30
2023-04-30T21:53:53.801Z,1.90
2023-04-30T21:56:21.958Z,2.13
2023-04-30T21:58:49.928Z,1.92
2023-04-30T22:01:18.221Z,2.30
2023-04-30T22:03:46.337Z,2.38
2023-04-30T22:06:14.320Z,2.55
2023-04-30T22:08:42.406Z,2.30
2023-04-30T22:11:10.374Z,2.20
2023-04-30T22:13:38.272Z,1.80
2023-04-30T22:16:06.412Z,2.08
2023-04-30T22:18:34.288Z,2.33
2023-04-30T22:21:02.400Z,1.95
2023-04-30T22:23:30.595Z,2.85
2023-04-30T22:25:58.446Z,2.22
2023-04-30T22:28:26.324Z,2.42
2023-04-30T22:30:59.931Z,2.95
2023-04-30T22:33:27.900Z,2.20
2023-04-30T22:35:56.055Z,2.13
2023-04-30T22:38:23.949Z,2.35
2023-04-30T22:40:51.887Z,1.90
2023-04-30T22:43:20.296Z,2.22
2023-04-30T22:45:48.448Z,2.00
2023-04-30T22:48:16.444Z,2.13
2023-04-30T22:50:44.800Z,2.35
2023-04-30T22:53:13.982Z,2.70
2023-04-30T22:55:42.132Z,2.40
2023-04-30T22:58:10.364Z,2.40
2023-04-30T23:00:38.701Z,2.45
2023-04-30T23:03:06.823Z,2.70
2023-04-30T23:05:35.019Z,2.20
2023-04-30T23:08:04.318Z,2.47
2023-04-30T23:10:32.211Z,2.17
2023-04-30T23:13:00.186Z,1.98
2023-04-30T23:15:28.145Z,2.38
2023-04-30T23:17:56.987Z,2.38
2023-04-30T23:20:25.029Z,2.55
2023-04-30T23:22:52.975Z,2.30
2023-04-30T23:25:21.272Z,2.90
2023-04-30T23:27:49.181Z,2.77
2023-04-30T23:30:17.108Z,2.38
2023-04-30T23:32:44.981Z,2.90
2023-04-30T23:35:12.852Z,2.85
2023-04-30T23:37:40.950Z,2.28
2023-04-30T23:40:09.715Z,2.30
2023-04-30T23:42:37.594Z,2.00
2023-04-30T23:45:06.325Z,2.03
2023-04-30T23:47:36.961Z,1.85
2023-04-30T23:50:05.069Z,2.42
2023-04-30T23:52:33.292Z,2.25
2023-04-30T23:55:01.174Z,2.30
2023-04-30T23:57:29.069Z,2.53
2023-04-30T23:59:57.273Z,2.75
